Time;durP1;ratioP1;P1;durP2;ratioP2;P2;SDS_P1;SDS_P2;PMS_P1;PMS_P2;Temp;Humidity;BMP_temperature;BMP_pressure;BME280_temperature;BME280_humidity;BME280_pressure;Samples;Min_cycle;Max_cycle;Signal;HPM_P1;HPM_P2
2023/08/22 00:02:19;;;;;;;8.80;4.68;;;;;;;18.07;nan;102018.50;5023036;28;20026;-74
2023/08/22 00:04:45;;;;;;;14.60;4.30;;;;;;;18.00;nan;102015.22;5020690;28;20088;-74
2023/08/22 00:07:10;;;;;;;7.82;4.63;;;;;;;18.02;nan;102016.88;5024290;28;20088;-74
2023/08/22 00:09:35;;;;;;;10.75;4.88;;;;;;;18.04;nan;102021.22;5020305;28;20026;-74
2023/08/22 00:12:01;;;;;;;8.40;4.00;;;;;;;18.11;nan;102028.88;5026724;28;20053;-74
2023/08/22 00:14:26;;;;;;;9.27;4.68;;;;;;;18.09;nan;102030.72;5018940;28;20025;-74
2023/08/22 00:16:51;;;;;;;8.20;4.60;;;;;;;18.07;nan;102024.63;5024046;28;20491;-74
2023/08/22 00:19:16;;;;;;;10.63;4.65;;;;;;;17.97;nan;102028.50;5022254;28;20500;-74
2023/08/22 00:21:42;;;;;;;8.35;4.25;;;;;;;17.91;nan;102016.38;5010539;28;20030;-74
2023/08/22 00:24:07;;;;;;;8.35;4.82;;;;;;;17.85;nan;102021.03;5018221;28;20057;-74
2023/08/22 00:26:32;;;;;;;7.78;4.80;;;;;;;17.87;nan;102022.69;5017960;28;20418;-74
2023/08/22 00:28:58;;;;;;;8.02;4.53;;;;;;;17.86;nan;102018.34;5021996;28;20412;-74
2023/08/22 00:31:23;;;;;;;8.52;4.38;;;;;;;17.80;nan;102015.91;5019637;28;20441;-74
2023/08/22 00:33:49;;;;;;;8.80;3.83;;;;;;;17.82;nan;102016.75;5019638;28;20101;-74
2023/08/22 00:36:14;;;;;;;6.30;3.67;;;;;;;17.83;nan;102020.22;5023723;28;20119;-74
2023/08/22 00:38:39;;;;;;;7.00;3.70;;;;;;;17.90;nan;102019.94;5014598;28;20034;-74
2023/08/22 00:41:04;;;;;;;11.60;3.80;;;;;;;17.88;nan;102011.22;5024759;28;20113;-74
2023/08/22 00:43:30;;;;;;;8.43;4.20;;;;;;;17.89;nan;102012.09;5019763;28;20400;-74
2023/08/22 00:45:55;;;;;;;8.10;4.13;;;;;;;17.87;nan;102001.59;5022845;28;20373;-74
2023/08/22 00:48:21;;;;;;;9.68;3.65;;;;;;;17.89;nan;102014.75;5022656;28;20057;-74
2023/08/22 00:50:46;;;;;;;11.23;4.35;;;;;;;17.85;nan;102010.47;5019169;28;20033;-74
2023/08/22 00:53:11;;;;;;;8.02;4.03;;;;;;;17.85;nan;102008.69;5022369;28;20022;-74
2023/08/22 00:55:37;;;;;;;8.90;3.95;;;;;;;17.80;nan;102002.72;5017229;28;20022;-74
2023/08/22 00:58:02;;;;;;;8.63;4.57;;;;;;;17.72;nan;101996.81;5026050;28;20077;-74
2023/08/22 01:00:27;;;;;;;10.77;4.60;;;;;;;17.68;nan;102000.47;5024631;28;20037;-74
2023/08/22 01:02:53;;;;;;;8.90;4.38;;;;;;;17.67;nan;101998.78;5025728;28;20033;-74
2023/08/22 01:05:19;;;;;;;9.80;4.55;;;;;;;17.64;nan;101998.88;5025326;28;20091;-74
2023/08/22 01:08:11;;;;;;;9.32;4.65;;;;;;;17.53;nan;101986.06;5024831;28;20485;-74
2023/08/22 01:10:42;;;;;;;9.15;4.45;;;;;;;17.62;nan;101996.28;5023759;28;20469;-74
2023/08/22 01:13:12;;;;;;;11.75;4.85;;;;;;;17.59;nan;101990.25;5027542;28;20059;-74
2023/08/22 01:15:40;;;;;;;10.82;4.53;;;;;;;17.57;nan;101998.22;5026538;28;20388;-74
2023/08/22 01:18:07;;;;;;;12.00;4.22;;;;;;;17.57;nan;102002.66;5023516;28;20363;-74
2023/08/22 01:20:33;;;;;;;8.48;4.63;;;;;;;17.50;nan;102005.47;5027727;28;20432;-74
2023/08/22 01:22:59;;;;;;;11.43;4.55;;;;;;;17.47;nan;102002.94;5025396;28;20104;-74
2023/08/22 01:25:29;;;;;;;7.15;4.43;;;;;;;17.50;nan;102004.63;5019745;28;20104;-74
2023/08/22 01:28:10;;;;;;;7.45;4.82;;;;;;;17.46;nan;102009.16;5024238;28;20109;-75
2023/08/22 01:30:47;;;;;;;4.45;3.80;;;;;;;17.41;nan;101986.47;5024606;28;20533;-75
2023/08/22 01:33:17;;;;;;;9.38;5.18;;;;;;;17.35;nan;101977.00;5016625;28;20037;-74
2023/08/22 01:35:48;;;;;;;9.40;4.88;;;;;;;17.47;nan;101981.84;5015971;28;20064;-74
2023/08/22 01:38:14;;;;;;;9.38;5.30;;;;;;;17.40;nan;101982.13;5024578;28;20040;-74
2023/08/22 01:40:40;;;;;;;11.10;5.30;;;;;;;17.36;nan;101983.97;5022692;28;20025;-74
2023/08/22 01:43:05;;;;;;;12.65;5.15;;;;;;;17.33;nan;101989.38;5025960;28;20041;-74
2023/08/22 01:45:31;;;;;;;6.82;4.72;;;;;;;17.34;nan;101985.81;5022944;28;20030;-74
2023/08/22 01:47:56;;;;;;;9.98;5.00;;;;;;;17.32;nan;101991.13;5022538;28;20413;-74
2023/08/22 01:50:21;;;;;;;10.38;5.15;;;;;;;17.40;nan;101990.91;5021877;28;20112;-74
2023/08/22 01:52:47;;;;;;;10.50;5.15;;;;;;;17.41;nan;101983.84;5025008;28;20124;-74
2023/08/22 01:55:14;;;;;;;7.90;5.25;;;;;;;17.36;nan;101989.25;5020459;28;20044;-74
2023/08/22 01:57:39;;;;;;;10.55;6.05;;;;;;;17.34;nan;101983.19;5023695;28;20026;-74
2023/08/22 02:00:07;;;;;;;8.63;5.10;;;;;;;17.33;nan;101984.13;5025753;28;20030;-74
2023/08/22 02:02:32;;;;;;;11.73;6.05;;;;;;;17.30;nan;101978.94;5021978;28;20037;-74
2023/08/22 02:04:57;;;;;;;10.20;5.20;;;;;;;17.27;nan;101984.31;5022197;28;20034;-74
2023/08/22 02:07:23;;;;;;;13.82;5.90;;;;;;;17.24;nan;101976.50;5019995;28;20164;-74
2023/08/22 02:09:48;;;;;;;9.68;5.70;;;;;;;17.18;nan;101979.34;5028504;28;20037;-74
2023/08/22 02:12:13;;;;;;;11.23;6.30;;;;;;;17.12;nan;101971.63;5021493;28;20056;-74
2023/08/22 02:14:38;;;;;;;11.35;6.30;;;;;;;17.11;nan;101973.41;5027008;28;20036;-74
2023/08/22 02:17:04;;;;;;;10.48;6.30;;;;;;;17.12;nan;101969.84;5023230;28;20029;-74
2023/08/22 02:19:29;;;;;;;10.93;6.45;;;;;;;17.04;nan;101972.75;5025255;28;20480;-74
2023/08/22 02:21:54;;;;;;;12.98;7.00;;;;;;;17.05;nan;101979.72;5025152;28;20025;-74
2023/08/22 02:24:20;;;;;;;16.20;6.38;;;;;;;17.02;nan;101964.03;5022649;28;20136;-74
2023/08/22 02:26:47;;;;;;;12.07;7.90;;;;;;;17.05;nan;101969.19;5024901;28;20033;-74
2023/08/22 02:29:12;;;;;;;11.05;7.72;;;;;;;17.01;nan;101948.28;5021926;28;20416;-74
2023/08/22 02:31:37;;;;;;;13.57;8.40;;;;;;;17.08;nan;101963.84;5027250;28;20041;-74
2023/08/22 02:34:03;;;;;;;12.38;8.05;;;;;;;17.12;nan;101969.00;5024652;28;20470;-74
2023/08/22 02:36:28;;;;;;;15.25;8.27;;;;;;;17.09;nan;101957.63;5018788;28;20058;-74
2023/08/22 02:38:53;;;;;;;14.63;7.95;;;;;;;17.06;nan;101959.50;5019571;28;20071;-74
2023/08/22 02:41:18;;;;;;;12.93;7.63;;;;;;;16.96;nan;101952.81;5016577;28;20030;-74
2023/08/22 02:43:44;;;;;;;14.63;7.93;;;;;;;16.90;nan;101956.50;5019759;28;20489;-75
2023/08/22 02:46:10;;;;;;;11.23;7.75;;;;;;;16.91;nan;101960.88;5023049;28;20033;-74
2023/08/22 02:48:35;;;;;;;18.23;7.75;;;;;;;16.91;nan;101963.53;5021479;28;20112;-74
2023/08/22 02:51:00;;;;;;;11.15;6.70;;;;;;;16.90;nan;101959.16;5024420;28;20125;-74
2023/08/22 02:53:26;;;;;;;13.52;7.55;;;;;;;16.91;nan;101957.41;5021626;28;20044;-74
2023/08/22 02:55:51;;;;;;;14.05;7.65;;;;;;;16.96;nan;101958.09;5015479;28;20033;-74
2023/08/22 02:58:17;;;;;;;11.32;6.25;;;;;;;17.02;nan;101958.75;5023479;28;20109;-75
2023/08/22 03:00:46;;;;;;;15.20;7.15;;;;;;;17.03;nan;101960.47;5018524;28;20026;-74
2023/08/22 03:03:11;;;;;;;12.45;6.63;;;;;;;17.00;nan;101955.34;5024141;28;20025;-74
2023/08/22 03:05:37;;;;;;;18.20;6.00;;;;;;;16.97;nan;101954.53;5021504;28;20038;-74
2023/08/22 03:08:03;;;;;;;13.70;6.47;;;;;;;16.96;nan;101953.69;5027353;28;20041;-74
2023/08/22 03:10:28;;;;;;;14.82;6.65;;;;;;;16.96;nan;101963.38;5019794;28;20068;-74
2023/08/22 03:12:53;;;;;;;15.07;6.57;;;;;;;16.88;nan;101961.00;5027156;28;20068;-74
2023/08/22 03:15:19;;;;;;;13.23;6.97;;;;;;;16.94;nan;101967.81;5020558;28;20021;-74
2023/08/22 03:17:44;;;;;;;13.43;6.50;;;;;;;16.90;nan;101959.16;5025873;28;20030;-75
2023/08/22 03:20:10;;;;;;;14.52;6.75;;;;;;;16.91;nan;101966.16;5021423;28;20053;-74
2023/08/22 03:22:35;;;;;;;13.55;6.63;;;;;;;16.87;nan;101968.91;5024433;28;20033;-74
2023/08/22 03:25:01;;;;;;;13.88;7.68;;;;;;;16.77;nan;101963.09;5015280;28;20040;-74
2023/08/22 03:27:26;;;;;;;23.45;7.13;;;;;;;16.65;nan;101958.19;5022973;28;20087;-74
2023/08/22 03:29:51;;;;;;;12.25;7.13;;;;;;;16.57;nan;101959.25;5023288;28;20029;-74
2023/08/22 03:32:17;;;;;;;12.68;6.60;;;;;;;16.42;nan;101949.22;5020893;28;20034;-74
2023/08/22 03:34:42;;;;;;;13.55;6.90;;;;;;;16.50;nan;101960.38;5025997;28;20476;-74
2023/08/22 03:37:07;;;;;;;11.73;7.35;;;;;;;16.41;nan;101950.09;5023102;28;20069;-74
2023/08/22 03:39:33;;;;;;;16.73;7.18;;;;;;;16.45;nan;101964.94;5013486;28;20036;-74
2023/08/22 03:41:58;;;;;;;12.23;7.80;;;;;;;16.36;nan;101949.41;5023838;28;20461;-75
2023/08/22 03:44:23;;;;;;;9.75;7.70;;;;;;;16.38;nan;101960.72;5021878;28;20465;-74
2023/08/22 03:46:48;;;;;;;13.40;7.90;;;;;;;16.21;nan;101940.19;5020892;28;20026;-74
2023/08/22 03:49:16;;;;;;;11.57;8.40;;;;;;;16.33;nan;101970.53;5022984;28;20033;-74
2023/08/22 03:51:41;;;;;;;15.20;8.38;;;;;;;16.24;nan;101957.66;5009597;28;20061;-74
2023/08/22 03:54:07;;;;;;;14.75;9.23;;;;;;;16.22;nan;101957.72;5019334;28;20068;-74
2023/08/22 03:56:32;;;;;;;12.32;8.45;;;;;;;16.21;nan;101963.88;5014885;28;20071;-74
2023/08/22 03:58:58;;;;;;;16.75;9.82;;;;;;;16.17;nan;101962.22;5021505;28;20090;-74
2023/08/22 04:01:23;;;;;;;11.85;8.13;;;;;;;16.13;nan;101956.19;5019587;28;20425;-74
2023/08/22 04:03:48;;;;;;;12.40;8.95;;;;;;;16.10;nan;101948.41;5016981;28;20034;-74
2023/08/22 04:06:14;;;;;;;10.95;8.48;;;;;;;16.11;nan;101957.16;5022096;28;20087;-74
2023/08/22 04:08:39;;;;;;;13.50;9.73;;;;;;;16.07;nan;101951.13;5021566;28;20018;-74
2023/08/22 04:11:04;;;;;;;13.82;11.23;;;;;;;16.08;nan;101952.81;5022917;28;20049;-74
2023/08/22 04:13:30;;;;;;;14.68;10.05;;;;;;;16.07;nan;101960.78;5022380;28;20030;-74
2023/08/22 04:15:55;;;;;;;13.02;10.65;;;;;;;16.06;nan;101959.06;5021199;28;20038;-74
2023/08/22 04:18:20;;;;;;;16.60;11.40;;;;;;;16.02;nan;101955.66;5025065;28;20394;-74
2023/08/22 04:20:45;;;;;;;13.05;11.15;;;;;;;15.99;nan;101946.97;5019434;28;20473;-74
2023/08/22 04:23:11;;;;;;;16.13;11.50;;;;;;;15.83;nan;101933.41;5025714;28;20515;-74
2023/08/22 04:25:36;;;;;;;14.93;11.10;;;;;;;15.93;nan;101955.91;5013452;28;20038;-75
2023/08/22 04:28:02;;;;;;;14.02;11.15;;;;;;;15.75;nan;101927.50;5026253;28;20026;-74
2023/08/22 04:30:28;;;;;;;19.45;11.77;;;;;;;15.81;nan;101943.97;5018047;28;20033;-75
2023/08/22 04:32:53;;;;;;;14.27;11.32;;;;;;;15.80;nan;101936.13;5024759;28;20034;-74
2023/08/22 04:35:18;;;;;;;15.25;11.73;;;;;;;15.82;nan;101934.31;5030541;28;20046;-74
2023/08/22 04:37:44;;;;;;;17.83;11.35;;;;;;;15.88;nan;101952.53;5026966;28;20026;-74
2023/08/22 04:40:10;;;;;;;15.43;12.48;;;;;;;15.85;nan;101950.84;5030971;28;20028;-74
2023/08/22 04:42:35;;;;;;;16.55;12.05;;;;;;;15.81;nan;101958.88;5024056;28;20037;-74
2023/08/22 04:45:00;;;;;;;19.50;12.55;;;;;;;15.68;nan;101940.81;5028822;28;20029;-74
2023/08/22 04:47:25;;;;;;;16.15;12.18;;;;;;;15.75;nan;101964.31;5025864;28;20033;-74
2023/08/22 04:49:51;;;;;;;16.58;13.55;;;;;;;15.63;nan;101939.16;5025119;28;20022;-74
2023/08/22 04:52:16;;;;;;;15.50;13.05;;;;;;;15.77;nan;101946.72;5026940;28;20068;-75
2023/08/22 04:54:42;;;;;;;20.42;13.93;;;;;;;15.82;nan;101955.34;5024973;28;20108;-74
2023/08/22 04:57:07;;;;;;;14.23;12.73;;;;;;;15.86;nan;101957.00;5024915;28;20045;-74
2023/08/22 04:59:33;;;;;;;19.13;13.63;;;;;;;15.90;nan;101956.84;5025756;28;20104;-74
2023/08/22 05:01:58;;;;;;;15.63;12.63;;;;;;;15.94;nan;101965.53;5018465;28;20026;-74
2023/08/22 05:04:23;;;;;;;17.42;13.93;;;;;;;15.95;nan;101961.13;5020275;28;20029;-74
2023/08/22 05:06:49;;;;;;;16.65;13.20;;;;;;;15.97;nan;101968.06;5021321;28;20033;-74
2023/08/22 05:09:15;;;;;;;16.98;14.27;;;;;;;15.95;nan;101956.72;5017475;28;20036;-74
2023/08/22 05:11:40;;;;;;;15.00;12.95;;;;;;;15.96;nan;101968.97;5021527;28;20035;-74
2023/08/22 05:14:08;;;;;;;16.38;13.45;;;;;;;15.85;nan;101942.97;5025552;28;20030;-74
2023/08/22 05:16:33;;;;;;;16.90;13.07;;;;;;;15.90;nan;101948.97;5020597;28;20034;-74
2023/08/22 05:18:58;;;;;;;19.33;13.75;;;;;;;15.98;nan;101967.16;5024169;28;20034;-74
2023/08/22 05:21:24;;;;;;;17.58;13.23;;;;;;;16.00;nan;101975.88;5025853;28;20036;-74
2023/08/22 05:23:49;;;;;;;18.02;12.63;;;;;;;16.06;nan;101964.31;5025214;28;20018;-74
2023/08/22 05:26:14;;;;;;;16.10;11.88;;;;;;;16.11;nan;101952.75;5018198;28;20493;-74
2023/08/22 05:28:40;;;;;;;17.20;13.00;;;;;;;16.14;nan;101950.03;5023878;28;20030;-74
2023/08/22 05:31:05;;;;;;;17.05;12.35;;;;;;;16.22;nan;101956.81;5022492;28;20022;-74
2023/08/22 05:33:30;;;;;;;18.00;12.90;;;;;;;16.32;nan;101950.41;5012889;28;20026;-74
2023/08/22 05:35:56;;;;;;;19.00;13.00;;;;;;;16.34;nan;101945.94;5027698;28;20454;-74
2023/08/22 05:38:21;;;;;;;18.45;13.02;;;;;;;16.40;nan;101958.94;5022475;28;20538;-75
2023/08/22 05:40:46;;;;;;;19.27;13.32;;;;;;;16.43;nan;101950.94;5023602;28;20074;-74
2023/08/22 05:43:12;;;;;;;19.15;12.55;;;;;;;16.45;nan;101940.34;5023261;28;20045;-74
2023/08/22 05:45:37;;;;;;;14.65;12.52;;;;;;;16.54;nan;101951.47;5017038;28;20390;-74
2023/08/22 05:48:03;;;;;;;20.10;13.35;;;;;;;16.53;nan;101939.22;5025915;28;20036;-74
2023/08/22 05:50:28;;;;;;;17.17;13.55;;;;;;;16.62;nan;101949.47;5022259;28;20355;-74
2023/08/22 05:52:53;;;;;;;17.98;14.73;;;;;;;16.67;nan;101949.31;5026819;28;20036;-74
2023/08/22 05:55:18;;;;;;;22.08;16.55;;;;;;;16.73;nan;101956.16;5022126;28;20029;-74
2023/08/22 05:57:45;;;;;;;21.42;15.90;;;;;;;16.79;nan;101961.28;5028312;28;20080;-74
2023/08/22 06:00:11;;;;;;;26.05;17.67;;;;;;;16.88;nan;101968.88;5020911;28;20526;-74
2023/08/22 06:02:36;;;;;;;22.45;17.77;;;;;;;16.94;nan;101959.91;5022293;28;20112;-74
2023/08/22 06:05:02;;;;;;;25.65;19.58;;;;;;;17.02;nan;101964.03;5023293;28;20030;-74
2023/08/22 06:07:27;;;;;;;30.33;21.20;;;;;;;17.08;nan;101961.19;5024901;28;20087;-74
2023/08/22 06:09:52;;;;;;;35.38;23.15;;;;;;;17.16;nan;101962.72;5018999;28;20033;-74
2023/08/22 06:12:18;;;;;;;29.65;21.40;;;;;;;17.27;nan;101973.78;5018829;28;20083;-74
2023/08/22 06:14:44;;;;;;;26.88;20.80;;;;;;;17.35;nan;101977.00;5024231;28;20492;-74
2023/08/22 06:17:09;;;;;;;23.67;17.80;;;;;;;17.43;nan;101980.25;5022766;28;20022;-74
2023/08/22 06:19:34;;;;;;;24.75;17.92;;;;;;;17.48;nan;101973.03;5019962;28;20536;-74
2023/08/22 06:22:00;;;;;;;22.73;17.33;;;;;;;17.51;nan;101965.00;5015005;28;20036;-74
2023/08/22 06:24:25;;;;;;;22.52;17.27;;;;;;;17.62;nan;101974.31;5022791;28;20487;-74
2023/08/22 06:26:51;;;;;;;20.23;14.88;;;;;;;17.68;nan;101971.47;5019553;28;20023;-74
2023/08/22 06:29:16;;;;;;;21.65;15.15;;;;;;;17.74;nan;101973.91;5017742;28;20482;-74
2023/08/22 06:31:42;;;;;;;18.77;14.10;;;;;;;17.73;nan;101969.56;5021382;28;20041;-75
2023/08/22 06:34:07;;;;;;;13.65;11.98;;;;;;;17.90;nan;101976.88;5022453;28;20021;-75
2023/08/22 06:36:32;;;;;;;17.20;12.70;;;;;;;17.98;nan;101974.81;5023765;28;20037;-75
2023/08/22 06:38:58;;;;;;;15.60;11.82;;;;;;;18.09;nan;101979.72;5024952;28;20409;-74
2023/08/22 06:41:23;;;;;;;16.83;11.32;;;;;;;18.15;nan;101974.22;5023022;28;20493;-72
2023/08/22 06:43:50;;;;;;;15.38;10.50;;;;;;;18.26;nan;101974.66;5021763;28;20025;-73
2023/08/22 06:46:16;;;;;;;17.05;11.13;;;;;;;18.36;nan;101983.09;5020579;28;20033;-73
2023/08/22 06:48:42;;;;;;;15.73;9.88;;;;;;;18.38;nan;101978.63;5023358;28;20045;-73
2023/08/22 06:51:08;;;;;;;14.70;9.88;;;;;;;18.55;nan;101991.19;5024012;28;20033;-73
2023/08/22 06:53:33;;;;;;;15.07;9.18;;;;;;;18.62;nan;101990.03;5016270;28;20469;-73
2023/08/22 06:55:59;;;;;;;12.63;8.07;;;;;;;18.70;nan;101999.38;5010720;28;20080;-73
2023/08/22 06:58:24;;;;;;;11.43;7.60;;;;;;;18.80;nan;102002.56;5015796;28;20508;-73
2023/08/22 07:00:49;;;;;;;12.75;7.28;;;;;;;18.86;nan;102010.22;5015822;28;20029;-73
2023/08/22 07:03:15;;;;;;;12.38;5.85;;;;;;;18.99;nan;102013.22;5022906;28;20076;-72
2023/08/22 07:05:40;;;;;;;6.28;4.82;;;;;;;19.04;nan;102003.34;5020740;28;20046;-74
2023/08/22 07:08:07;;;;;;;13.35;5.20;;;;;;;19.11;nan;101999.53;5021607;28;20063;-73
2023/08/22 07:10:34;;;;;;;6.68;3.88;;;;;;;19.26;nan;102013.91;5014077;28;20036;-73
2023/08/22 07:12:59;;;;;;;7.90;3.50;;;;;;;19.33;nan;102007.44;5027085;28;20037;-73
2023/08/22 07:15:24;;;;;;;8.85;3.45;;;;;;;19.42;nan;102015.00;5020509;28;20022;-73
2023/08/22 07:17:51;;;;;;;5.65;3.10;;;;;;;19.41;nan;101997.38;5026433;28;20472;-73
2023/08/22 07:20:17;;;;;;;5.18;2.53;;;;;;;19.55;nan;102015.31;5011757;28;20029;-73
2023/08/22 07:22:42;;;;;;;5.20;2.33;;;;;;;19.57;nan;102016.13;5025610;28;20041;-73
2023/08/22 07:25:08;;;;;;;4.50;2.17;;;;;;;19.63;nan;102017.66;5010221;28;20021;-73
2023/08/22 07:27:33;;;;;;;5.55;2.50;;;;;;;19.75;nan;102011.88;5017503;28;20029;-73
2023/08/22 07:29:58;;;;;;;7.05;2.33;;;;;;;19.90;nan;102020.06;5023277;28;20377;-73
2023/08/22 07:32:24;;;;;;;5.28;2.60;;;;;;;20.09;nan;102011.22;5020767;28;20080;-73
2023/08/22 07:34:49;;;;;;;9.15;3.05;;;;;;;20.26;nan;102015.75;5026061;28;20346;-74
2023/08/22 07:37:15;;;;;;;5.03;2.72;;;;;;;20.45;nan;102012.28;5014620;28;20731;-74
2023/08/22 07:39:41;;;;;;;4.32;2.92;;;;;;;20.64;nan;102007.88;5018843;28;20116;-74
2023/08/22 07:42:07;;;;;;;9.02;4.80;;;;;;;20.91;nan;102002.16;5017937;28;20063;-73
2023/08/22 07:44:32;;;;;;;7.38;3.90;;;;;;;21.18;nan;102002.59;5013167;28;20040;-73
2023/08/22 07:46:57;;;;;;;9.07;5.65;;;;;;;21.47;nan;102009.13;5018508;28;20040;-74
2023/08/22 07:49:24;;;;;;;10.07;5.95;;;;;;;21.69;nan;102009.75;5017266;28;20430;-74
2023/08/22 07:51:49;;;;;;;11.43;6.13;;;;;;;21.76;nan;102002.31;5020392;28;20385;-74
2023/08/22 07:54:15;;;;;;;14.43;6.15;;;;;;;21.91;nan;102006.84;5021210;28;20034;-73
2023/08/22 07:56:40;;;;;;;8.95;5.10;;;;;;;22.01;nan;102006.34;5014129;28;20062;-74
2023/08/22 07:59:05;;;;;;;9.52;5.35;;;;;;;21.95;nan;102007.53;5022531;28;20032;-74
2023/08/22 08:01:31;;;;;;;10.98;5.10;;;;;;;22.01;nan;102003.69;5014733;28;20484;-74
2023/08/22 08:03:57;;;;;;;8.68;4.30;;;;;;;21.85;nan;101987.72;5018487;28;20057;-74
2023/08/22 08:06:22;;;;;;;7.38;4.40;;;;;;;21.84;nan;102002.78;5011393;28;20123;-74
2023/08/22 08:08:48;;;;;;;10.02;4.10;;;;;;;21.90;nan;102012.22;5021168;28;20425;-74
2023/08/22 08:11:13;;;;;;;9.52;3.80;;;;;;;21.93;nan;102017.38;5014487;28;20021;-74
2023/08/22 08:13:38;;;;;;;7.15;4.07;;;;;;;22.00;nan;101999.31;5014698;28;20120;-74
2023/08/22 08:16:06;;;;;;;7.28;3.50;;;;;;;22.17;nan;102010.81;5022319;28;20060;-74
2023/08/22 08:18:32;;;;;;;8.60;4.13;;;;;;;22.34;nan;102020.50;5022649;28;20096;-74
2023/08/22 08:20:57;;;;;;;8.98;4.40;;;;;;;22.49;nan;102029.41;5015096;28;20026;-74
2023/08/22 08:23:22;;;;;;;7.82;4.35;;;;;;;22.57;nan;102027.22;5017075;28;20358;-75
2023/08/22 08:25:48;;;;;;;9.13;4.47;;;;;;;22.57;nan;102024.56;5014503;28;20026;-75
2023/08/22 08:28:14;;;;;;;9.75;5.20;;;;;;;22.61;nan;102028.75;5023828;28;20033;-74
2023/08/22 08:30:39;;;;;;;9.45;5.30;;;;;;;22.55;nan;102021.13;5019774;28;20461;-74
2023/08/22 08:33:06;;;;;;;6.28;4.53;;;;;;;22.59;nan;102022.66;5021149;28;20393;-75
2023/08/22 08:35:32;;;;;;;10.85;5.45;;;;;;;22.60;nan;102029.72;5010732;28;20071;-75
2023/08/22 08:37:57;;;;;;;8.65;5.20;;;;;;;22.57;nan;102019.25;5019914;28;20099;-75
2023/08/22 08:40:22;;;;;;;8.07;5.07;;;;;;;22.69;nan;102033.63;5020084;28;20038;-75
2023/08/22 08:42:48;;;;;;;8.85;5.50;;;;;;;22.77;nan;102039.41;5027120;28;20030;-75
2023/08/22 08:45:15;;;;;;;10.73;5.40;;;;;;;22.84;nan;102023.97;5019525;28;20524;-75
2023/08/22 08:47:42;;;;;;;7.93;5.78;;;;;;;22.85;nan;102013.22;5024808;28;20378;-75
2023/08/22 08:50:09;;;;;;;8.55;5.07;;;;;;;22.99;nan;102023.13;5016760;28;20533;-75
2023/08/22 08:52:35;;;;;;;11.00;5.00;;;;;;;23.14;nan;102019.56;5025654;28;20025;-75
2023/08/22 08:55:00;;;;;;;11.90;5.60;;;;;;;23.20;nan;102022.84;5018867;28;20037;-74
2023/08/22 08:57:29;;;;;;;8.57;4.45;;;;;;;23.25;nan;102020.75;5012998;28;20033;-75
2023/08/22 08:59:54;;;;;;;8.30;4.65;;;;;;;23.21;nan;102025.38;5014449;28;20476;-75
2023/08/22 09:02:20;;;;;;;7.30;5.25;;;;;;;23.32;nan;102028.31;5022524;28;20022;-75
2023/08/22 09:04:45;;;;;;;9.23;4.55;;;;;;;23.24;nan;102003.94;5021898;28;20516;-75
2023/08/22 09:07:10;;;;;;;11.57;5.70;;;;;;;23.20;nan;102031.66;5016611;28;20033;-74
2023/08/22 09:09:36;;;;;;;10.65;4.57;;;;;;;23.12;nan;102029.47;5011020;28;20038;-74
2023/08/22 09:12:07;;;;;;;12.80;4.88;;;;;;;23.00;nan;102019.50;5021220;28;20032;-75
2023/08/22 09:14:33;;;;;;;11.48;4.82;;;;;;;22.78;nan;102026.97;5022301;28;20130;-75
2023/08/22 09:17:01;;;;;;;10.55;4.90;;;;;;;22.70;nan;102029.19;5021758;28;20463;-74
2023/08/22 09:19:31;;;;;;;13.43;5.22;;;;;;;22.53;nan;102020.38;5018637;28;20426;-74
2023/08/22 09:21:58;;;;;;;9.65;5.22;;;;;;;22.61;nan;102031.41;5012256;28;20022;-74
2023/08/22 09:24:25;;;;;;;12.82;4.70;;;;;;;22.62;nan;102027.81;5021289;28;20457;-74
2023/08/22 09:26:50;;;;;;;10.90;5.05;;;;;;;22.77;nan;102033.22;5023209;28;20531;-75
2023/08/22 09:29:28;;;;;;;10.63;4.88;;;;;;;22.68;nan;102019.50;5023504;28;20026;-74
2023/08/22 09:32:12;;;;;;;15.82;6.65;;;;;;;22.59;nan;102038.59;5017920;28;20021;-75
2023/08/22 09:34:37;;;;;;;10.60;6.68;;;;;;;22.47;nan;102033.13;5012298;28;20026;-75
2023/08/22 09:37:02;;;;;;;13.35;6.75;;;;;;;22.43;nan;102027.09;5010277;28;20386;-75
2023/08/22 09:39:30;;;;;;;10.45;6.65;;;;;;;22.57;nan;102019.25;5015462;28;20030;-74
2023/08/22 09:41:57;;;;;;;11.70;7.35;;;;;;;22.86;nan;102006.13;5018838;28;20037;-76
2023/08/22 09:44:27;;;;;;;14.43;7.45;;;;;;;23.39;nan;102033.28;5009004;28;20112;-75
2023/08/22 09:46:55;;;;;;;13.30;7.00;;;;;;;23.69;nan;102019.97;5019402;28;20112;-76
2023/08/22 09:49:21;;;;;;;12.43;6.63;;;;;;;24.16;nan;102032.19;5011828;28;20026;-75
2023/08/22 09:51:53;;;;;;;10.43;6.88;;;;;;;24.29;nan;102030.47;5016804;28;20025;-76
2023/08/22 09:54:19;;;;;;;13.68;7.53;;;;;;;24.34;nan;102032.84;5024671;28;20037;-76
2023/08/22 09:56:45;;;;;;;14.43;7.07;;;;;;;24.36;nan;102033.59;5023737;28;20033;-76
2023/08/22 09:59:14;;;;;;;10.75;7.35;;;;;;;24.29;nan;102041.97;5024235;28;20057;-75
2023/08/22 10:01:40;;;;;;;18.77;7.80;;;;;;;24.26;nan;102035.97;5023434;28;20034;-76
2023/08/22 10:04:06;;;;;;;10.27;6.10;;;;;;;24.02;nan;102039.22;5025830;28;20033;-76
2023/08/22 10:06:35;;;;;;;11.25;7.20;;;;;;;23.94;nan;102036.19;5023348;28;20033;-76
2023/08/22 10:09:07;;;;;;;9.40;6.20;;;;;;;24.13;nan;102043.03;5024878;28;20516;-76
2023/08/22 10:11:36;;;;;;;12.70;5.90;;;;;;;24.39;nan;102026.25;5023557;28;20035;-76
2023/08/22 10:14:03;;;;;;;11.55;5.68;;;;;;;24.72;nan;102028.66;5023455;28;20552;-76
2023/08/22 10:16:29;;;;;;;10.98;6.50;;;;;;;24.75;nan;102022.22;5024803;28;20052;-76
2023/08/22 10:19:02;;;;;;;12.18;5.25;;;;;;;24.82;nan;102028.91;5023001;28;20030;-75
2023/08/22 10:21:43;;;;;;;;;;;;;;;25.22;nan;102021.81;5025153;28;20041;-76
2023/08/22 10:24:30;;;;;;;9.10;4.72;;;;;;;25.24;nan;102013.69;5023399;28;19945;-76
2023/08/22 10:27:07;;;;;;;10.55;4.13;;;;;;;25.25;nan;102017.25;5017406;28;20036;-76
2023/08/22 10:29:35;;;;;;;5.97;2.72;;;;;;;24.94;nan;102028.09;5015119;28;20026;-76
2023/08/22 10:32:00;;;;;;;4.75;2.25;;;;;;;24.59;nan;102021.50;5024427;28;20030;-76
2023/08/22 10:34:26;;;;;;;4.67;2.33;;;;;;;24.20;nan;102028.41;5023330;28;20412;-76
2023/08/22 10:37:01;;;;;;;3.75;2.03;;;;;;;24.02;nan;102039.22;5025134;28;20312;-76
2023/08/22 10:39:40;;;;;;;4.32;1.90;;;;;;;24.04;nan;102033.81;5021754;28;20536;-76
2023/08/22 10:42:08;;;;;;;11.23;2.38;;;;;;;24.16;nan;102010.88;5025949;28;20489;-76
2023/08/22 10:44:36;;;;;;;6.70;2.08;;;;;;;24.54;nan;102016.47;5021746;28;20083;-76
2023/08/22 10:47:03;;;;;;;6.40;2.42;;;;;;;24.98;nan;102010.06;5025023;28;20017;-76
2023/08/22 10:49:33;;;;;;;3.22;1.77;;;;;;;25.09;nan;102017.38;5022799;28;20026;-76
2023/08/22 10:52:06;;;;;;;5.65;1.90;;;;;;;25.14;nan;102018.78;5024623;28;20083;-76
2023/08/22 10:54:52;;;;;;;2.85;1.73;;;;;;;25.01;nan;102009.84;5022483;28;20087;-76
2023/08/22 10:57:18;;;;;;;4.32;2.30;;;;;;;24.91;nan;102019.44;5011850;28;20393;-76
2023/08/22 10:59:58;;;;;;;5.15;2.00;;;;;;;25.06;nan;102026.44;5016046;28;20022;-76
2023/08/22 11:02:32;;;;;;;4.18;2.30;;;;;;;25.13;nan;102006.41;5016664;28;20030;-74
2023/08/22 11:05:11;;;;;;;6.80;2.40;;;;;;;25.36;nan;102022.72;5024978;28;20037;-73
2023/08/22 11:07:40;;;;;;;7.00;2.50;;;;;;;25.69;nan;102007.03;5023088;28;20140;-74
2023/08/22 11:10:07;;;;;;;5.35;2.17;;;;;;;25.81;nan;102000.03;5019288;28;20037;-74
2023/08/22 11:12:33;;;;;;;5.70;2.25;;;;;;;26.01;nan;101998.66;5009989;28;20029;-74
2023/08/22 11:14:58;;;;;;;4.43;2.20;;;;;;;26.29;nan;102005.56;5021214;28;20533;-74
2023/08/22 11:17:24;;;;;;;5.07;1.90;;;;;;;26.56;nan;102015.25;5017157;28;20033;-74
2023/08/22 11:19:54;;;;;;;4.80;1.75;;;;;;;26.60;nan;102017.59;5023698;28;20033;-74
2023/08/22 11:22:19;;;;;;;1.80;1.33;;;;;;;26.67;nan;102018.00;5013327;28;20043;-73
2023/08/22 11:24:51;;;;;;;4.30;1.23;;;;;;;26.91;nan;102019.81;5022274;28;20021;-74
2023/08/22 11:27:18;;;;;;;4.55;1.30;;;;;;;27.08;nan;102016.78;5012398;28;20038;-74
2023/08/22 11:29:49;;;;;;;3.13;1.30;;;;;;;26.85;nan;102008.63;5012947;28;20037;-74
2023/08/22 11:32:32;;;;;;;3.60;1.70;;;;;;;26.74;nan;102021.06;5012998;28;20152;-74